createdAt,value
2022-09-20T00:01:29.907Z,7.45
2022-09-20T00:03:57.805Z,7.72
2022-09-20T00:06:29.143Z,8.85
2022-09-20T00:08:56.697Z,8.73
2022-09-20T00:11:28.630Z,7.28
2022-09-20T00:13:56.577Z,7.80
2022-09-20T00:16:25.491Z,8.60
2022-09-20T00:18:53.174Z,8.18
2022-09-20T00:21:22.050Z,9.80
2022-09-20T00:23:49.408Z,7.70
2022-09-20T00:26:17.515Z,8.88
2022-09-20T00:28:44.729Z,7.32
2022-09-20T00:31:11.898Z,8.63
2022-09-20T00:33:57.526Z,9.32
2022-09-20T00:36:24.556Z,7.70
2022-09-20T00:38:58.167Z,8.30
2022-09-20T00:41:25.102Z,8.07
2022-09-20T00:43:52.154Z,7.88
2022-09-20T00:46:33.486Z,7.13
2022-09-20T00:49:11.247Z,7.80
2022-09-20T00:51:38.957Z,9.23
2022-09-20T00:54:05.878Z,7.90
2022-09-20T00:56:34.392Z,8.20
2022-09-20T00:59:31.081Z,8.00
2022-09-20T01:02:08.167Z,10.30
2022-09-20T01:04:35.519Z,7.47
2022-09-20T01:07:02.932Z,8.63
2022-09-20T01:09:29.851Z,8.32
2022-09-20T01:11:56.946Z,8.50
2022-09-20T01:14:24.566Z,7.50
2022-09-20T01:16:53.523Z,7.88
2022-09-20T01:19:29.312Z,7.53
2022-09-20T01:21:56.079Z,9.57
2022-09-20T01:24:47.302Z,7.13
2022-09-20T01:27:38.368Z,8.73
2022-09-20T01:30:10.156Z,7.97
2022-09-20T01:32:56.892Z,8.23
2022-09-20T01:35:24.362Z,9.20
2022-09-20T01:38:29.867Z,8.10
2022-09-20T01:41:28.093Z,8.57
2022-09-20T01:44:18.781Z,7.00
2022-09-20T01:46:45.565Z,8.05
2022-09-20T01:49:30.884Z,8.70
2022-09-20T01:52:34.729Z,7.82
2022-09-20T01:55:19.617Z,7.10
2022-09-20T01:58:23.497Z,8.70
2022-09-20T02:00:59.281Z,7.97
2022-09-20T02:03:48.653Z,11.60
2022-09-20T02:06:34.283Z,6.82
2022-09-20T02:09:38.584Z,7.35
2022-09-20T02:12:30.513Z,10.55
2022-09-20T02:15:10.080Z,8.73
2022-09-20T02:17:49.580Z,8.48
2022-09-20T02:20:38.162Z,9.60
2022-09-20T02:23:16.998Z,9.32
2022-09-20T02:26:16.905Z,8.65
2022-09-20T02:29:21.930Z,7.80
2022-09-20T02:31:48.736Z,8.80
2022-09-20T02:34:33.421Z,8.73
2022-09-20T02:37:29.250Z,9.60
2022-09-20T02:40:16.477Z,8.25
2022-09-20T02:42:50.032Z,7.85
2022-09-20T02:45:58.404Z,8.68
2022-09-20T02:48:30.221Z,8.95
2022-09-20T02:51:06.142Z,7.88
2022-09-20T02:53:58.421Z,10.27
2022-09-20T02:56:36.847Z,8.93
2022-09-20T02:59:05.743Z,10.13
2022-09-20T03:02:08.524Z,8.60
2022-09-20T03:04:46.118Z,9.63
2022-09-20T03:07:46.286Z,11.80
2022-09-20T03:10:26.802Z,10.43
2022-09-20T03:13:02.826Z,9.35
2022-09-20T03:15:41.755Z,8.45
2022-09-20T03:18:11.439Z,8.00
2022-09-20T03:20:55.436Z,8.25
2022-09-20T03:23:31.526Z,7.25
2022-09-20T03:26:00.651Z,7.70
2022-09-20T03:28:30.912Z,7.78
2022-09-20T03:31:12.569Z,8.85
2022-09-20T03:34:12.072Z,8.03
2022-09-20T03:37:13.833Z,7.85
2022-09-20T03:40:11.427Z,8.45
2022-09-20T03:42:49.169Z,8.45
2022-09-20T03:45:34.112Z,10.10
2022-09-20T03:48:29.663Z,9.73
2022-09-20T03:51:34.528Z,9.07
2022-09-20T03:54:10.564Z,9.70
2022-09-20T03:57:06.913Z,10.32
2022-09-20T04:00:07.585Z,9.93
2022-09-20T04:02:50.659Z,9.52
2022-09-20T04:05:42.855Z,9.52
2022-09-20T04:08:27.702Z,8.98
2022-09-20T04:11:12.909Z,9.80
2022-09-20T04:13:42.515Z,10.18
2022-09-20T04:16:48.126Z,9.93
2022-09-20T04:19:33.000Z,8.38
2022-09-20T04:22:00.927Z,8.38
2022-09-20T04:24:36.736Z,8.13
2022-09-20T04:27:22.852Z,9.77
2022-09-20T04:30:02.318Z,9.68
2022-09-20T04:32:44.811Z,9.10
2022-09-20T04:35:54.447Z,9.02
2022-09-20T04:38:21.840Z,9.95
2022-09-20T04:41:16.618Z,8.52
2022-09-20T04:44:27.952Z,8.50
2022-09-20T04:47:19.106Z,9.40
2022-09-20T04:49:48.796Z,9.63
2022-09-20T04:52:53.618Z,9.00
2022-09-20T04:55:44.797Z,10.20
2022-09-20T04:58:19.233Z,8.40
2022-09-20T05:01:16.949Z,9.80
2022-09-20T05:04:04.866Z,9.77
2022-09-20T05:06:46.604Z,9.27
2022-09-20T05:09:22.736Z,10.83
2022-09-20T05:12:09.616Z,9.65
2022-09-20T05:15:01.917Z,8.57
2022-09-20T05:17:34.568Z,8.63
2022-09-20T05:20:16.486Z,9.60
2022-09-20T05:22:52.205Z,8.63
2022-09-20T05:25:52.036Z,8.23
2022-09-20T05:28:46.819Z,9.73
2022-09-20T05:31:44.761Z,10.98
2022-09-20T05:34:20.708Z,11.23
2022-09-20T05:36:54.676Z,7.95
2022-09-20T05:39:40.739Z,9.73
2022-09-20T05:42:26.752Z,11.10
2022-09-20T05:45:04.314Z,16.48
2022-09-20T05:47:56.942Z,9.88
2022-09-20T05:50:23.973Z,10.00
2022-09-20T05:52:59.664Z,10.32
2022-09-20T05:55:46.981Z,11.95
2022-09-20T05:58:58.574Z,10.75
2022-09-20T06:01:44.665Z,9.68
2022-09-20T06:04:24.555Z,11.15
2022-09-20T06:07:06.402Z,9.88
2022-09-20T06:10:04.072Z,11.63
2022-09-20T06:12:46.395Z,9.90
2022-09-20T06:15:19.680Z,11.18
2022-09-20T06:18:11.504Z,12.18
2022-09-20T06:20:54.740Z,10.30
2022-09-20T06:23:21.537Z,10.68
2022-09-20T06:25:57.306Z,9.25
2022-09-20T06:28:49.241Z,10.50
2022-09-20T06:31:17.931Z,12.30
2022-09-20T06:33:50.017Z,11.13
2022-09-20T06:37:02.562Z,13.38
2022-09-20T06:40:02.584Z,11.68
2022-09-20T06:42:29.689Z,11.82
2022-09-20T06:44:56.844Z,13.88
2022-09-20T06:47:23.705Z,12.02
2022-09-20T06:49:50.515Z,11.48
2022-09-20T06:52:18.284Z,11.90
2022-09-20T06:54:46.469Z,11.80
2022-09-20T06:57:15.897Z,10.07
2022-09-20T06:59:42.860Z,15.13
2022-09-20T07:02:10.991Z,14.30
2022-09-20T07:04:38.018Z,10.82
2022-09-20T07:07:09.247Z,12.32
2022-09-20T07:09:36.511Z,11.23
2022-09-20T07:12:03.563Z,14.05
2022-09-20T07:14:31.064Z,11.73
2022-09-20T07:16:57.905Z,13.98
2022-09-20T07:19:24.744Z,12.07
2022-09-20T07:21:51.656Z,12.50
2022-09-20T07:24:18.551Z,13.45
2022-09-20T07:26:56.239Z,14.90
2022-09-20T07:29:23.184Z,13.35
2022-09-20T07:31:50.806Z,13.98
2022-09-20T07:34:20.215Z,15.55
2022-09-20T07:36:50.472Z,12.15
2022-09-20T07:39:17.664Z,13.05
2022-09-20T07:41:48.578Z,11.13
2022-09-20T07:44:24.314Z,12.95
2022-09-20T07:46:52.016Z,15.07
2022-09-20T07:49:19.048Z,12.20
2022-09-20T07:51:45.894Z,13.55
2022-09-20T07:54:12.719Z,13.27
2022-09-20T07:56:39.881Z,13.45
2022-09-20T07:59:06.667Z,13.18
2022-09-20T08:01:33.585Z,15.32
2022-09-20T08:04:00.678Z,15.10
2022-09-20T08:06:27.563Z,17.30
2022-09-20T08:08:54.443Z,15.48
2022-09-20T08:11:27.743Z,15.82
2022-09-20T08:14:10.537Z,14.30
2022-09-20T08:19:05.695Z,16.98
2022-09-20T08:21:33.221Z,14.20
2022-09-20T08:24:00.206Z,11.00
2022-09-20T08:26:28.484Z,15.18
2022-09-20T08:28:56.926Z,14.35
2022-09-20T08:31:25.331Z,15.82
2022-09-20T08:33:52.444Z,15.43
2022-09-20T08:36:20.822Z,16.23
2022-09-20T08:41:48.650Z,15.43
2022-09-20T08:44:25.655Z,14.35
2022-09-20T08:47:02.923Z,14.35
2022-09-20T08:49:30.025Z,13.05
2022-09-20T08:51:58.197Z,13.75
2022-09-20T08:54:32.222Z,13.35
2022-09-20T08:57:05.409Z,12.52
2022-09-20T08:59:32.294Z,13.60
2022-09-20T09:01:59.895Z,12.20
2022-09-20T09:04:35.586Z,12.18
2022-09-20T09:07:02.746Z,11.85
2022-09-20T09:09:29.633Z,10.32
2022-09-20T09:11:56.907Z,10.55
2022-09-20T09:14:48.461Z,9.50
2022-09-20T09:17:19.817Z,8.98
2022-09-20T09:20:12.770Z,7.50
2022-09-20T09:22:41.199Z,8.52
2022-09-20T09:25:21.915Z,6.50
2022-09-20T09:28:03.760Z,5.65
2022-09-20T09:30:37.899Z,7.32
2022-09-20T09:33:25.312Z,6.60
2022-09-20T09:35:55.270Z,5.15
2022-09-20T09:38:24.253Z,6.95
2022-09-20T09:40:55.638Z,5.53
2022-09-20T09:43:28.638Z,4.75
2022-09-20T09:45:56.676Z,4.95
2022-09-20T09:48:25.056Z,4.97
2022-09-20T09:51:07.933Z,5.05
2022-09-20T09:53:35.742Z,6.35
2022-09-20T09:56:26.036Z,4.20
2022-09-20T09:59:37.558Z,5.47
2022-09-20T10:02:31.012Z,6.75
2022-09-20T10:05:10.896Z,5.82
2022-09-20T10:07:48.198Z,4.47
2022-09-20T10:10:32.434Z,4.72
2022-09-20T10:13:16.316Z,4.68
2022-09-20T10:16:04.429Z,4.90
2022-09-20T10:18:37.170Z,4.82
2022-09-20T10:21:08.417Z,4.47
2022-09-20T10:24:19.639Z,4.78
2022-09-20T10:27:04.046Z,5.22
2022-09-20T10:29:30.842Z,4.55
2022-09-20T10:32:15.305Z,3.72
2022-09-20T10:34:52.873Z,4.10
2022-09-20T10:37:38.923Z,4.45
2022-09-20T10:40:46.869Z,3.45
2022-09-20T10:43:20.993Z,2.72
2022-09-20T10:46:30.768Z,4.00
2022-09-20T10:49:20.593Z,3.50
2022-09-20T10:52:15.371Z,2.90
2022-09-20T10:54:55.116Z,3.85
2022-09-20T10:57:35.172Z,3.60
2022-09-20T11:00:28.824Z,3.78
2022-09-20T11:03:13.949Z,2.97
2022-09-20T11:05:58.976Z,3.28
2022-09-20T11:08:32.567Z,4.72
2022-09-20T11:11:08.744Z,4.68
2022-09-20T11:13:41.324Z,4.18
2022-09-20T11:16:27.100Z,4.43
2022-09-20T11:19:00.231Z,3.67
2022-09-20T11:21:38.339Z,4.28
2022-09-20T11:24:19.195Z,5.40
2022-09-20T11:26:57.065Z,3.92
2022-09-20T11:29:32.860Z,4.05
2022-09-20T11:32:13.988Z,6.15
2022-09-20T11:34:57.234Z,5.00
2022-09-20T11:37:27.778Z,3.78
2022-09-20T11:39:55.206Z,4.10
2022-09-20T11:42:27.998Z,5.00
2022-09-20T11:44:54.900Z,3.53
2022-09-20T11:47:42.710Z,3.92
2022-09-20T11:50:29.243Z,3.60
2022-09-20T11:53:11.337Z,3.58
2022-09-20T11:56:05.142Z,7.45
2022-09-20T11:58:33.426Z,5.07
2022-09-20T12:01:00.434Z,4.05
2022-09-20T12:03:33.930Z,4.45
2022-09-20T12:06:05.859Z,5.03
2022-09-20T12:08:35.093Z,5.47
2022-09-20T12:11:07.798Z,5.03
2022-09-20T12:13:36.482Z,4.72
2022-09-20T12:16:13.115Z,3.90
2022-09-20T12:18:55.332Z,4.03
2022-09-20T12:21:22.386Z,5.28
2022-09-20T12:23:58.361Z,5.25
2022-09-20T12:26:28.212Z,3.80
2022-09-20T12:28:56.890Z,3.95
2022-09-20T12:31:29.452Z,3.80
2022-09-20T12:34:11.771Z,3.53
2022-09-20T12:36:43.229Z,4.00
2022-09-20T12:39:15.283Z,3.15
2022-09-20T12:41:56.427Z,4.05
2022-09-20T12:44:40.198Z,3.60
2022-09-20T12:47:11.383Z,4.38
2022-09-20T12:50:06.111Z,4.50
2022-09-20T12:52:57.036Z,4.63
2022-09-20T12:55:29.994Z,4.45
2022-09-20T12:58:08.193Z,4.28
2022-09-20T13:00:48.604Z,5.03
2022-09-20T13:03:15.460Z,4.20
2022-09-20T13:05:44.922Z,5.43
2022-09-20T13:08:30.149Z,4.45
2022-09-20T13:11:07.384Z,4.18
2022-09-20T13:13:36.135Z,4.15
2022-09-20T13:16:05.774Z,4.65
2022-09-20T13:18:34.652Z,4.30
2022-09-20T13:21:06.397Z,4.18
2022-09-20T13:23:38.591Z,4.22
2022-09-20T13:26:05.938Z,4.68
2022-09-20T13:28:37.370Z,4.85
2022-09-20T13:31:21.054Z,6.10
2022-09-20T13:33:48.394Z,5.85
2022-09-20T13:36:15.291Z,4.50
2022-09-20T13:38:43.299Z,5.25
2022-09-20T13:41:11.462Z,5.95
2022-09-20T13:43:41.141Z,5.03
2022-09-20T13:46:12.169Z,4.35
2022-09-20T13:48:39.326Z,5.60
2022-09-20T13:51:18.618Z,5.55
2022-09-20T13:53:47.548Z,4.80
2022-09-20T13:56:25.698Z,6.78
2022-09-20T13:58:52.939Z,6.07
2022-09-20T14:01:24.491Z,6.32
2022-09-20T14:03:51.485Z,6.85
2022-09-20T14:06:18.351Z,5.97
2022-09-20T14:08:49.695Z,5.63
2022-09-20T14:11:37.023Z,5.90
2022-09-20T14:14:04.316Z,5.10
2022-09-20T14:16:35.971Z,5.35
2022-09-20T14:19:03.122Z,5.72
2022-09-20T14:21:32.364Z,5.47
2022-09-20T14:24:04.862Z,6.05
2022-09-20T14:26:36.426Z,6.10
2022-09-20T14:29:34.571Z,5.18
2022-09-20T14:32:16.775Z,8.18
2022-09-20T14:37:18.464Z,6.38
2022-09-20T14:39:54.310Z,9.23
2022-09-20T14:42:31.818Z,8.32
2022-09-20T14:44:58.673Z,5.88
2022-09-20T14:47:36.510Z,4.95
2022-09-20T14:50:04.080Z,5.60
2022-09-20T14:52:38.377Z,5.47
2022-09-20T14:55:14.359Z,6.55
2022-09-20T14:57:42.226Z,5.88
2022-09-20T15:00:15.274Z,5.40
2022-09-20T15:02:45.520Z,5.28
2022-09-20T15:05:26.055Z,6.03
2022-09-20T15:08:12.912Z,4.55
2022-09-20T15:10:39.808Z,4.78
2022-09-20T15:13:08.977Z,5.60
2022-09-20T15:15:35.916Z,7.10
2022-09-20T15:18:03.229Z,5.65
2022-09-20T15:20:30.206Z,8.02
2022-09-20T15:22:57.994Z,6.28
2022-09-20T15:25:24.832Z,4.55
2022-09-20T15:27:51.801Z,5.93
2022-09-20T15:30:19.746Z,6.28
2022-09-20T15:32:46.808Z,5.07
2022-09-20T15:35:14.305Z,6.25
2022-09-20T15:37:41.345Z,4.13
2022-09-20T15:40:09.050Z,7.80
2022-09-20T15:42:38.052Z,5.07
2022-09-20T15:45:09.073Z,5.30
2022-09-20T15:47:39.448Z,5.90
2022-09-20T15:50:08.416Z,5.85
2022-09-20T15:52:36.724Z,5.97
2022-09-20T15:55:04.338Z,5.03
2022-09-20T15:57:31.784Z,4.82
2022-09-20T16:00:01.416Z,5.03
2022-09-20T16:02:35.257Z,4.82
2022-09-20T16:05:02.048Z,4.70
2022-09-20T16:07:28.913Z,4.80
2022-09-20T16:09:55.983Z,6.00
2022-09-20T16:12:23.817Z,5.90
2022-09-20T16:14:50.764Z,6.40
2022-09-20T16:17:17.856Z,4.90
2022-09-20T16:19:48.650Z,7.18
2022-09-20T16:22:16.037Z,5.10
2022-09-20T16:24:42.935Z,5.00
2022-09-20T16:27:09.957Z,5.13
2022-09-20T16:29:37.557Z,6.90
2022-09-20T16:32:05.397Z,6.03
2022-09-20T16:34:33.800Z,6.63
2022-09-20T16:37:05.746Z,5.57
2022-09-20T16:39:32.592Z,6.70
2022-09-20T16:42:04.674Z,7.25
2022-09-20T16:44:38.713Z,7.90
2022-09-20T16:47:09.868Z,7.70
2022-09-20T16:49:36.928Z,6.70
2022-09-20T16:52:07.740Z,7.35
2022-09-20T16:54:34.692Z,6.65
2022-09-20T16:57:01.624Z,6.82
2022-09-20T16:59:28.629Z,6.07
2022-09-20T17:01:55.524Z,6.13
2022-09-20T17:04:22.522Z,5.43
2022-09-20T17:06:49.707Z,4.97
2022-09-20T17:09:16.642Z,6.57
2022-09-20T17:11:47.827Z,6.63
2022-09-20T17:14:16.426Z,6.37
2022-09-20T17:16:43.609Z,5.20
2022-09-20T17:19:11.909Z,6.43
2022-09-20T17:21:40.282Z,5.60
2022-09-20T17:24:07.201Z,5.85
2022-09-20T17:26:38.781Z,6.97
2022-09-20T17:29:06.940Z,5.85
2022-09-20T17:31:35.514Z,6.35
2022-09-20T17:34:04.107Z,5.57
2022-09-20T17:36:32.733Z,5.88
2022-09-20T17:39:04.271Z,6.68
2022-09-20T17:41:32.531Z,6.20
2022-09-20T17:44:00.127Z,6.93
2022-09-20T17:46:31.504Z,9.57
2022-09-20T17:49:06.852Z,5.70
2022-09-20T17:51:36.477Z,6.25
2022-09-20T17:54:03.527Z,5.60
2022-09-20T17:56:31.200Z,5.72
2022-09-20T17:58:58.806Z,6.03
2022-09-20T18:01:27.290Z,5.65
2022-09-20T18:03:56.184Z,5.38
2022-09-20T18:06:27.472Z,6.80
2022-09-20T18:09:02.643Z,6.45
2022-09-20T18:11:33.958Z,5.00
2022-09-20T18:14:01.499Z,5.73
2022-09-20T18:16:28.836Z,5.18
2022-09-20T18:18:55.683Z,6.35
2022-09-20T18:21:23.945Z,5.43
2022-09-20T18:23:51.770Z,6.43
2022-09-20T18:26:23.001Z,6.00
2022-09-20T18:28:56.844Z,6.03
2022-09-20T18:31:25.378Z,6.57
2022-09-20T18:33:55.984Z,6.47
2022-09-20T18:36:28.213Z,6.95
2022-09-20T18:41:31.337Z,7.88
2022-09-20T18:43:58.353Z,6.50
2022-09-20T18:46:30.856Z,5.97
2022-09-20T18:49:02.496Z,9.02
2022-09-20T18:51:29.545Z,8.18
2022-09-20T18:53:57.033Z,8.15
2022-09-20T18:56:29.498Z,8.50
2022-09-20T18:58:59.041Z,9.80
2022-09-20T19:01:54.014Z,7.78
2022-09-20T19:04:46.542Z,10.55
2022-09-20T19:07:42.385Z,10.00
2022-09-20T19:10:21.820Z,8.77
2022-09-20T19:12:53.060Z,8.35
2022-09-20T19:15:34.987Z,7.05
2022-09-20T19:18:10.849Z,8.07
2022-09-20T19:20:46.641Z,8.75
2022-09-20T19:23:56.519Z,7.32
2022-09-20T19:26:30.502Z,7.22
2022-09-20T19:29:00.048Z,9.23
2022-09-20T19:31:29.420Z,7.30
2022-09-20T19:33:59.293Z,8.88
2022-09-20T19:36:40.049Z,8.50
2022-09-20T19:39:14.694Z,7.15
2022-09-20T19:41:47.445Z,7.30
2022-09-20T19:44:14.686Z,7.15
2022-09-20T19:47:06.211Z,9.25
2022-09-20T19:49:46.361Z,8.43
2022-09-20T19:52:16.122Z,7.18
2022-09-20T19:54:46.783Z,7.15
2022-09-20T19:57:23.554Z,8.15
2022-09-20T19:59:51.134Z,7.53
2022-09-20T20:02:18.451Z,7.28
2022-09-20T20:04:45.651Z,7.35
2022-09-20T20:07:32.540Z,7.55
2022-09-20T20:10:18.409Z,8.13
2022-09-20T20:13:03.783Z,6.68
2022-09-20T20:15:30.975Z,8.45
2022-09-20T20:18:30.445Z,7.28
2022-09-20T20:20:57.405Z,7.57
2022-09-20T20:23:48.390Z,6.90
2022-09-20T20:26:23.381Z,7.78
2022-09-20T20:28:51.688Z,7.07
2022-09-20T20:31:21.359Z,7.53
2022-09-20T20:33:48.505Z,7.65
2022-09-20T20:36:16.329Z,7.10
2022-09-20T20:38:49.409Z,7.53
2022-09-20T20:41:18.699Z,6.93
2022-09-20T20:43:47.105Z,8.60
2022-09-20T20:46:20.477Z,6.95
2022-09-20T20:48:47.820Z,8.05
2022-09-20T20:51:16.859Z,7.20
2022-09-20T20:53:47.433Z,7.30
2022-09-20T20:56:19.053Z,7.43
2022-09-20T20:58:46.299Z,7.28
2022-09-20T21:01:19.901Z,8.00
2022-09-20T21:03:48.611Z,7.32
2022-09-20T21:06:16.426Z,6.45
2022-09-20T21:08:49.088Z,7.13
2022-09-20T21:11:23.383Z,7.47
2022-09-20T21:13:51.273Z,8.35
2022-09-20T21:16:19.729Z,9.30
2022-09-20T21:18:47.784Z,8.05
2022-09-20T21:21:14.681Z,7.15
2022-09-20T21:23:41.573Z,7.63
2022-09-20T21:26:09.539Z,7.75
2022-09-20T21:28:37.518Z,8.07
2022-09-20T21:31:08.243Z,9.82
2022-09-20T21:33:37.633Z,6.55
2022-09-20T21:36:05.492Z,7.13
2022-09-20T21:38:34.146Z,9.27
2022-09-20T21:41:13.263Z,7.97
2022-09-20T21:43:41.942Z,8.88
2022-09-20T21:46:17.786Z,7.40
2022-09-20T21:48:45.575Z,7.00
2022-09-20T21:51:14.685Z,8.88
2022-09-20T21:53:41.582Z,8.25
2022-09-20T21:56:10.354Z,8.07
2022-09-20T21:58:39.923Z,8.45
2022-09-20T22:01:12.043Z,9.18
2022-09-20T22:03:40.459Z,7.15
2022-09-20T22:06:21.031Z,8.32
2022-09-20T22:08:58.953Z,11.35
2022-09-20T22:11:27.429Z,9.68
2022-09-20T22:13:55.002Z,9.77
2022-09-20T22:16:26.511Z,7.85
2022-09-20T22:18:53.646Z,8.95
2022-09-20T22:21:24.710Z,8.23
2022-09-20T22:23:58.919Z,8.80
2022-09-20T22:26:27.202Z,7.90
2022-09-20T22:28:54.122Z,8.55
2022-09-20T22:31:23.013Z,9.50
2022-09-20T22:33:51.720Z,7.85
2022-09-20T22:36:21.007Z,7.70
2022-09-20T22:38:47.957Z,8.45
2022-09-20T22:41:15.526Z,9.00
2022-09-20T22:43:42.417Z,13.05
2022-09-20T22:46:10.090Z,11.57
2022-09-20T22:48:36.986Z,10.13
2022-09-20T22:51:09.202Z,9.10
2022-09-20T22:56:06.811Z,9.68
2022-09-20T22:58:35.373Z,9.75
2022-09-20T23:01:09.949Z,10.55
2022-09-20T23:03:40.841Z,9.15
2022-09-20T23:06:20.839Z,9.40
2022-09-20T23:08:51.905Z,9.13
2022-09-20T23:11:19.405Z,8.45
2022-09-20T23:13:46.524Z,7.53
2022-09-20T23:16:21.244Z,10.43
2022-09-20T23:18:49.075Z,9.50
2022-09-20T23:21:16.102Z,8.20
2022-09-20T23:23:43.517Z,9.75
2022-09-20T23:26:11.409Z,8.43
2022-09-20T23:28:39.817Z,7.90
2022-09-20T23:31:11.500Z,9.07
2022-09-20T23:33:38.438Z,9.43
2022-09-20T23:36:08.935Z,7.72
2022-09-20T23:38:36.503Z,8.73
2022-09-20T23:41:04.397Z,9.05
2022-09-20T23:43:31.294Z,8.93
2022-09-20T23:45:58.223Z,7.47
2022-09-20T23:48:25.065Z,9.30
2022-09-20T23:50:52.296Z,10.23
2022-09-20T23:53:19.329Z,7.47
2022-09-20T23:55:46.141Z,7.63
2022-09-20T23:58:13.079Z,9.57
